sensor_id;sensor_type;location;lat;lon;timestamp;P1;durP1;ratioP1;P2;durP2;ratioP2
11711;SDS011;5912;51.034;6.984;2022-10-16T00:01:55;2.17;;;1.35;;
11711;SDS011;5912;51.034;6.984;2022-10-16T00:04:20;2.78;;;1.13;;
11711;SDS011;5912;51.034;6.984;2022-10-16T00:06:45;1.90;;;1.38;;
11711;SDS011;5912;51.034;6.984;2022-10-16T00:09:11;3.20;;;1.45;;
11711;SDS011;5912;51.034;6.984;2022-10-16T00:11:37;3.13;;;1.63;;
11711;SDS011;5912;51.034;6.984;2022-10-16T00:14:06;2.85;;;1.70;;
11711;SDS011;5912;51.034;6.984;2022-10-16T00:16:34;1.98;;;1.42;;
11711;SDS011;5912;51.034;6.984;2022-10-16T00:19:00;2.15;;;1.50;;
11711;SDS011;5912;51.034;6.984;2022-10-16T00:21:26;1.40;;;1.30;;
11711;SDS011;5912;51.034;6.984;2022-10-16T00:23:57;1.40;;;1.30;;
11711;SDS011;5912;51.034;6.984;2022-10-16T00:26:27;1.40;;;1.20;;
11711;SDS011;5912;51.034;6.984;2022-10-16T00:28:54;1.60;;;1.33;;
11711;SDS011;5912;51.034;6.984;2022-10-16T00:31:20;1.83;;;1.20;;
11711;SDS011;5912;51.034;6.984;2022-10-16T00:33:46;3.47;;;1.60;;
11711;SDS011;5912;51.034;6.984;2022-10-16T00:36:14;1.23;;;1.13;;
11711;SDS011;5912;51.034;6.984;2022-10-16T00:38:42;1.92;;;1.50;;
11711;SDS011;5912;51.034;6.984;2022-10-16T00:41:09;2.05;;;1.48;;
11711;SDS011;5912;51.034;6.984;2022-10-16T00:43:40;1.20;;;1.10;;
11711;SDS011;5912;51.034;6.984;2022-10-16T00:46:13;2.08;;;1.30;;
11711;SDS011;5912;51.034;6.984;2022-10-16T00:48:43;1.33;;;1.20;;
11711;SDS011;5912;51.034;6.984;2022-10-16T00:51:13;2.17;;;1.50;;
11711;SDS011;5912;51.034;6.984;2022-10-16T00:53:39;3.42;;;1.42;;
11711;SDS011;5912;51.034;6.984;2022-10-16T00:56:04;2.67;;;1.38;;
11711;SDS011;5912;51.034;6.984;2022-10-16T00:58:30;2.15;;;1.60;;
11711;SDS011;5912;51.034;6.984;2022-10-16T01:00:56;2.00;;;1.20;;
11711;SDS011;5912;51.034;6.984;2022-10-16T01:03:23;2.42;;;1.48;;
11711;SDS011;5912;51.034;6.984;2022-10-16T01:05:53;3.08;;;1.77;;
11711;SDS011;5912;51.034;6.984;2022-10-16T01:08:34;3.67;;;1.65;;
11711;SDS011;5912;51.034;6.984;2022-10-16T01:11:15;2.22;;;1.80;;
11711;SDS011;5912;51.034;6.984;2022-10-16T01:14:11;3.60;;;2.05;;
11711;SDS011;5912;51.034;6.984;2022-10-16T01:22:26;2.95;;;1.80;;
11711;SDS011;5912;51.034;6.984;2022-10-16T01:25:02;3.72;;;1.65;;
11711;SDS011;5912;51.034;6.984;2022-10-16T01:27:34;2.38;;;1.58;;
11711;SDS011;5912;51.034;6.984;2022-10-16T01:30:18;1.98;;;1.75;;
11711;SDS011;5912;51.034;6.984;2022-10-16T01:35:47;4.53;;;1.80;;
11711;SDS011;5912;51.034;6.984;2022-10-16T01:38:26;2.35;;;1.50;;
11711;SDS011;5912;51.034;6.984;2022-10-16T01:41:00;3.47;;;1.65;;
11711;SDS011;5912;51.034;6.984;2022-10-16T01:43:33;1.30;;;1.13;;
11711;SDS011;5912;51.034;6.984;2022-10-16T01:46:03;1.20;;;1.10;;
11711;SDS011;5912;51.034;6.984;2022-10-16T01:48:30;1.60;;;1.50;;
11711;SDS011;5912;51.034;6.984;2022-10-16T01:50:59;1.35;;;1.20;;
11711;SDS011;5912;51.034;6.984;2022-10-16T01:53:28;2.15;;;1.30;;
11711;SDS011;5912;51.034;6.984;2022-10-16T01:55:54;1.77;;;1.50;;
11711;SDS011;5912;51.034;6.984;2022-10-16T01:58:22;1.60;;;1.30;;
11711;SDS011;5912;51.034;6.984;2022-10-16T02:00:50;2.65;;;1.23;;
11711;SDS011;5912;51.034;6.984;2022-10-16T02:03:19;2.15;;;1.42;;
11711;SDS011;5912;51.034;6.984;2022-10-16T02:05:55;2.08;;;1.25;;
11711;SDS011;5912;51.034;6.984;2022-10-16T02:08:23;3.25;;;1.80;;
11711;SDS011;5912;51.034;6.984;2022-10-16T02:10:54;2.20;;;1.42;;
11711;SDS011;5912;51.034;6.984;2022-10-16T02:13:29;2.22;;;1.50;;
11711;SDS011;5912;51.034;6.984;2022-10-16T02:15:58;1.88;;;1.13;;
11711;SDS011;5912;51.034;6.984;2022-10-16T02:18:23;4.05;;;1.52;;
11711;SDS011;5912;51.034;6.984;2022-10-16T02:23:51;1.70;;;1.50;;
11711;SDS011;5912;51.034;6.984;2022-10-16T02:26:30;2.80;;;1.13;;
11711;SDS011;5912;51.034;6.984;2022-10-16T02:29:02;1.50;;;1.40;;
11711;SDS011;5912;51.034;6.984;2022-10-16T02:31:32;1.88;;;1.60;;
11711;SDS011;5912;51.034;6.984;2022-10-16T02:34:00;2.17;;;1.40;;
11711;SDS011;5912;51.034;6.984;2022-10-16T02:36:29;1.88;;;1.40;;
11711;SDS011;5912;51.034;6.984;2022-10-16T02:38:56;2.33;;;1.55;;
11711;SDS011;5912;51.034;6.984;2022-10-16T02:41:24;2.05;;;1.60;;
11711;SDS011;5912;51.034;6.984;2022-10-16T02:43:49;3.45;;;1.35;;
11711;SDS011;5912;51.034;6.984;2022-10-16T02:46:15;1.92;;;1.60;;
11711;SDS011;5912;51.034;6.984;2022-10-16T02:48:42;1.75;;;1.55;;
11711;SDS011;5912;51.034;6.984;2022-10-16T02:51:07;1.50;;;1.40;;
11711;SDS011;5912;51.034;6.984;2022-10-16T02:53:33;2.10;;;1.35;;
11711;SDS011;5912;51.034;6.984;2022-10-16T02:55:58;2.70;;;1.50;;
11711;SDS011;5912;51.034;6.984;2022-10-16T02:58:23;2.90;;;1.80;;
11711;SDS011;5912;51.034;6.984;2022-10-16T03:00:48;2.28;;;1.67;;
11711;SDS011;5912;51.034;6.984;2022-10-16T03:03:14;1.80;;;1.70;;
11711;SDS011;5912;51.034;6.984;2022-10-16T03:05:39;2.33;;;2.00;;
11711;SDS011;5912;51.034;6.984;2022-10-16T03:08:04;2.78;;;1.80;;
11711;SDS011;5912;51.034;6.984;2022-10-16T03:10:29;3.38;;;1.70;;
11711;SDS011;5912;51.034;6.984;2022-10-16T03:12:55;2.92;;;1.50;;
11711;SDS011;5912;51.034;6.984;2022-10-16T03:15:20;1.98;;;1.65;;
11711;SDS011;5912;51.034;6.984;2022-10-16T03:17:46;2.40;;;1.40;;
11711;SDS011;5912;51.034;6.984;2022-10-16T03:20:11;1.88;;;1.38;;
11711;SDS011;5912;51.034;6.984;2022-10-16T03:22:36;2.20;;;1.40;;
11711;SDS011;5912;51.034;6.984;2022-10-16T03:25:01;2.05;;;1.55;;
11711;SDS011;5912;51.034;6.984;2022-10-16T03:27:27;1.92;;;1.40;;
11711;SDS011;5912;51.034;6.984;2022-10-16T03:29:52;4.13;;;1.40;;
11711;SDS011;5912;51.034;6.984;2022-10-16T03:32:17;1.10;;;1.00;;
11711;SDS011;5912;51.034;6.984;2022-10-16T03:34:44;1.35;;;1.13;;
11711;SDS011;5912;51.034;6.984;2022-10-16T03:37:10;1.50;;;1.40;;
11711;SDS011;5912;51.034;6.984;2022-10-16T03:39:35;1.27;;;1.17;;
11711;SDS011;5912;51.034;6.984;2022-10-16T03:42:00;2.65;;;1.00;;
11711;SDS011;5912;51.034;6.984;2022-10-16T03:44:26;2.25;;;0.90;;
11711;SDS011;5912;51.034;6.984;2022-10-16T03:46:51;1.98;;;1.50;;
11711;SDS011;5912;51.034;6.984;2022-10-16T03:49:16;1.83;;;1.20;;
11711;SDS011;5912;51.034;6.984;2022-10-16T03:51:41;1.98;;;1.50;;
11711;SDS011;5912;51.034;6.984;2022-10-16T03:54:07;1.63;;;1.23;;
11711;SDS011;5912;51.034;6.984;2022-10-16T03:56:32;1.48;;;1.38;;
11711;SDS011;5912;51.034;6.984;2022-10-16T03:58:57;1.92;;;1.40;;
11711;SDS011;5912;51.034;6.984;2022-10-16T04:01:23;1.90;;;1.65;;
11711;SDS011;5912;51.034;6.984;2022-10-16T04:03:48;3.15;;;1.60;;
11711;SDS011;5912;51.034;6.984;2022-10-16T04:06:13;1.50;;;1.40;;
11711;SDS011;5912;51.034;6.984;2022-10-16T04:08:39;2.05;;;1.67;;
11711;SDS011;5912;51.034;6.984;2022-10-16T04:11:06;1.63;;;1.27;;
11711;SDS011;5912;51.034;6.984;2022-10-16T04:13:32;2.65;;;1.40;;
11711;SDS011;5912;51.034;6.984;2022-10-16T04:15:57;1.85;;;1.75;;
11711;SDS011;5912;51.034;6.984;2022-10-16T04:18:22;1.35;;;1.25;;
11711;SDS011;5912;51.034;6.984;2022-10-16T04:20:48;3.10;;;1.35;;
11711;SDS011;5912;51.034;6.984;2022-10-16T04:23:13;1.63;;;1.52;;
11711;SDS011;5912;51.034;6.984;2022-10-16T04:25:38;2.80;;;1.55;;
11711;SDS011;5912;51.034;6.984;2022-10-16T04:28:04;2.65;;;1.67;;
11711;SDS011;5912;51.034;6.984;2022-10-16T04:30:29;1.35;;;1.20;;
11711;SDS011;5912;51.034;6.984;2022-10-16T04:32:54;2.53;;;1.38;;
11711;SDS011;5912;51.034;6.984;2022-10-16T04:35:20;1.42;;;1.20;;
11711;SDS011;5912;51.034;6.984;2022-10-16T04:37:46;1.20;;;1.10;;
11711;SDS011;5912;51.034;6.984;2022-10-16T04:40:12;1.65;;;1.23;;
11711;SDS011;5912;51.034;6.984;2022-10-16T04:42:38;1.52;;;1.23;;
11711;SDS011;5912;51.034;6.984;2022-10-16T04:45:04;1.60;;;1.50;;
11711;SDS011;5912;51.034;6.984;2022-10-16T04:47:30;1.50;;;1.40;;
11711;SDS011;5912;51.034;6.984;2022-10-16T04:49:56;2.15;;;1.33;;
11711;SDS011;5912;51.034;6.984;2022-10-16T04:52:21;1.42;;;1.30;;
11711;SDS011;5912;51.034;6.984;2022-10-16T04:54:49;1.27;;;1.10;;
11711;SDS011;5912;51.034;6.984;2022-10-16T04:57:15;1.27;;;1.17;;
11711;SDS011;5912;51.034;6.984;2022-10-16T04:59:40;1.60;;;1.25;;
11711;SDS011;5912;51.034;6.984;2022-10-16T05:02:05;2.42;;;1.20;;
11711;SDS011;5912;51.034;6.984;2022-10-16T05:04:31;3.28;;;1.10;;
11711;SDS011;5912;51.034;6.984;2022-10-16T05:06:56;1.50;;;1.35;;
11711;SDS011;5912;51.034;6.984;2022-10-16T05:09:21;1.48;;;1.20;;
11711;SDS011;5912;51.034;6.984;2022-10-16T05:11:47;1.10;;;1.00;;
11711;SDS011;5912;51.034;6.984;2022-10-16T05:14:12;1.30;;;1.20;;
11711;SDS011;5912;51.034;6.984;2022-10-16T05:16:37;2.03;;;1.30;;
11711;SDS011;5912;51.034;6.984;2022-10-16T05:19:03;1.30;;;1.20;;
11711;SDS011;5912;51.034;6.984;2022-10-16T05:21:28;1.83;;;1.40;;
11711;SDS011;5912;51.034;6.984;2022-10-16T05:23:53;3.00;;;1.40;;
11711;SDS011;5912;51.034;6.984;2022-10-16T05:26:20;1.50;;;1.27;;
11711;SDS011;5912;51.034;6.984;2022-10-16T05:28:45;1.30;;;1.20;;
11711;SDS011;5912;51.034;6.984;2022-10-16T05:31:11;1.52;;;1.23;;
11711;SDS011;5912;51.034;6.984;2022-10-16T05:33:36;1.85;;;1.13;;
11711;SDS011;5912;51.034;6.984;2022-10-16T05:36:03;1.92;;;0.98;;
11711;SDS011;5912;51.034;6.984;2022-10-16T05:38:30;1.85;;;1.25;;
11711;SDS011;5912;51.034;6.984;2022-10-16T05:40:55;2.42;;;1.20;;
11711;SDS011;5912;51.034;6.984;2022-10-16T05:43:21;1.55;;;1.15;;
11711;SDS011;5912;51.034;6.984;2022-10-16T05:45:53;2.03;;;1.25;;
11711;SDS011;5912;51.034;6.984;2022-10-16T05:48:31;1.67;;;1.50;;
11711;SDS011;5912;51.034;6.984;2022-10-16T05:51:00;1.92;;;1.20;;
11711;SDS011;5912;51.034;6.984;2022-10-16T05:53:30;1.55;;;1.20;;
11711;SDS011;5912;51.034;6.984;2022-10-16T05:55:57;1.05;;;0.90;;
11711;SDS011;5912;51.034;6.984;2022-10-16T05:58:23;1.88;;;1.10;;
11711;SDS011;5912;51.034;6.984;2022-10-16T06:00:53;1.83;;;1.30;;
11711;SDS011;5912;51.034;6.984;2022-10-16T06:03:25;1.60;;;1.50;;
11711;SDS011;5912;51.034;6.984;2022-10-16T06:05:51;1.73;;;1.10;;
11711;SDS011;5912;51.034;6.984;2022-10-16T06:08:18;1.35;;;1.10;;
11711;SDS011;5912;51.034;6.984;2022-10-16T06:10:44;1.23;;;1.13;;
11711;SDS011;5912;51.034;6.984;2022-10-16T06:13:11;2.83;;;1.27;;
11711;SDS011;5912;51.034;6.984;2022-10-16T06:15:37;1.92;;;1.38;;
11711;SDS011;5912;51.034;6.984;2022-10-16T06:18:04;1.60;;;1.17;;
11711;SDS011;5912;51.034;6.984;2022-10-16T06:20:29;3.20;;;1.20;;
11711;SDS011;5912;51.034;6.984;2022-10-16T06:22:55;1.52;;;1.10;;
11711;SDS011;5912;51.034;6.984;2022-10-16T06:25:21;1.23;;;1.08;;
11711;SDS011;5912;51.034;6.984;2022-10-16T06:27:46;4.32;;;1.35;;
11711;SDS011;5912;51.034;6.984;2022-10-16T06:30:12;3.45;;;1.17;;
11711;SDS011;5912;51.034;6.984;2022-10-16T06:32:37;1.63;;;1.20;;
11711;SDS011;5912;51.034;6.984;2022-10-16T06:35:02;1.52;;;1.02;;
11711;SDS011;5912;51.034;6.984;2022-10-16T06:37:28;2.42;;;1.58;;
11711;SDS011;5912;51.034;6.984;2022-10-16T06:39:53;1.83;;;1.33;;
11711;SDS011;5912;51.034;6.984;2022-10-16T06:42:18;3.00;;;1.30;;
11711;SDS011;5912;51.034;6.984;2022-10-16T06:44:44;1.75;;;1.30;;
11711;SDS011;5912;51.034;6.984;2022-10-16T06:47:09;1.95;;;1.52;;
11711;SDS011;5912;51.034;6.984;2022-10-16T06:49:35;1.50;;;1.38;;
11711;SDS011;5912;51.034;6.984;2022-10-16T06:52:00;2.55;;;1.50;;
11711;SDS011;5912;51.034;6.984;2022-10-16T06:54:26;2.63;;;1.30;;
11711;SDS011;5912;51.034;6.984;2022-10-16T06:56:52;3.20;;;1.35;;
11711;SDS011;5912;51.034;6.984;2022-10-16T06:59:19;1.80;;;1.35;;
11711;SDS011;5912;51.034;6.984;2022-10-16T07:01:45;2.58;;;1.42;;
11711;SDS011;5912;51.034;6.984;2022-10-16T07:04:10;2.08;;;1.70;;
11711;SDS011;5912;51.034;6.984;2022-10-16T07:06:35;2.15;;;1.33;;
11711;SDS011;5912;51.034;6.984;2022-10-16T07:09:02;2.35;;;1.55;;
11711;SDS011;5912;51.034;6.984;2022-10-16T07:11:29;2.05;;;1.42;;
11711;SDS011;5912;51.034;6.984;2022-10-16T07:13:55;1.40;;;1.25;;
11711;SDS011;5912;51.034;6.984;2022-10-16T07:16:21;2.78;;;1.50;;
11711;SDS011;5912;51.034;6.984;2022-10-16T07:18:49;2.65;;;1.30;;
11711;SDS011;5912;51.034;6.984;2022-10-16T07:21:17;1.55;;;1.25;;
11711;SDS011;5912;51.034;6.984;2022-10-16T07:23:45;2.05;;;1.23;;
11711;SDS011;5912;51.034;6.984;2022-10-16T07:26:10;2.33;;;1.38;;
11711;SDS011;5912;51.034;6.984;2022-10-16T07:28:36;1.48;;;1.15;;
11711;SDS011;5912;51.034;6.984;2022-10-16T07:31:05;1.02;;;0.93;;
11711;SDS011;5912;51.034;6.984;2022-10-16T07:33:33;2.53;;;1.40;;
11711;SDS011;5912;51.034;6.984;2022-10-16T07:36:00;3.17;;;1.63;;
11711;SDS011;5912;51.034;6.984;2022-10-16T07:38:26;1.50;;;1.05;;
11711;SDS011;5912;51.034;6.984;2022-10-16T07:41:24;1.35;;;1.25;;
11711;SDS011;5912;51.034;6.984;2022-10-16T07:43:47;2.08;;;1.38;;
11711;SDS011;5912;51.034;6.984;2022-10-16T07:46:18;2.22;;;1.70;;
11711;SDS011;5912;51.034;6.984;2022-10-16T07:48:44;2.25;;;1.27;;
11711;SDS011;5912;51.034;6.984;2022-10-16T07:51:12;1.90;;;1.27;;
11711;SDS011;5912;51.034;6.984;2022-10-16T07:53:39;1.80;;;1.33;;
11711;SDS011;5912;51.034;6.984;2022-10-16T07:56:05;1.92;;;1.48;;
11711;SDS011;5912;51.034;6.984;2022-10-16T07:58:32;1.67;;;1.30;;
11711;SDS011;5912;51.034;6.984;2022-10-16T08:00:59;6.70;;;1.60;;
11711;SDS011;5912;51.034;6.984;2022-10-16T08:03:29;2.75;;;1.80;;
11711;SDS011;5912;51.034;6.984;2022-10-16T08:05:56;2.17;;;1.50;;
11711;SDS011;5912;51.034;6.984;2022-10-16T08:08:22;2.42;;;1.45;;
11711;SDS011;5912;51.034;6.984;2022-10-16T08:10:47;2.38;;;1.30;;
11711;SDS011;5912;51.034;6.984;2022-10-16T08:13:12;1.83;;;1.10;;
11711;SDS011;5912;51.034;6.984;2022-10-16T08:15:39;3.70;;;1.40;;
11711;SDS011;5912;51.034;6.984;2022-10-16T08:18:05;1.65;;;1.00;;
11711;SDS011;5912;51.034;6.984;2022-10-16T08:20:31;0.82;;;0.63;;
11711;SDS011;5912;51.034;6.984;2022-10-16T08:22:58;1.13;;;0.90;;
11711;SDS011;5912;51.034;6.984;2022-10-16T08:25:24;1.08;;;0.70;;
11711;SDS011;5912;51.034;6.984;2022-10-16T08:27:50;3.03;;;0.80;;
11711;SDS011;5912;51.034;6.984;2022-10-16T08:30:17;0.68;;;0.65;;
11711;SDS011;5912;51.034;6.984;2022-10-16T08:32:44;0.82;;;0.75;;
11711;SDS011;5912;51.034;6.984;2022-10-16T08:35:10;0.82;;;0.70;;
11711;SDS011;5912;51.034;6.984;2022-10-16T08:37:36;1.05;;;0.60;;
11711;SDS011;5912;51.034;6.984;2022-10-16T08:40:02;2.65;;;0.50;;
11711;SDS011;5912;51.034;6.984;2022-10-16T08:42:40;0.82;;;0.60;;
11711;SDS011;5912;51.034;6.984;2022-10-16T08:50:47;1.02;;;0.57;;
11711;SDS011;5912;51.034;6.984;2022-10-16T08:53:15;1.42;;;0.68;;
11711;SDS011;5912;51.034;6.984;2022-10-16T08:55:54;1.27;;;0.60;;
11711;SDS011;5912;51.034;6.984;2022-10-16T08:58:23;0.65;;;0.55;;
11711;SDS011;5912;51.034;6.984;2022-10-16T09:00:53;0.80;;;0.50;;
11711;SDS011;5912;51.034;6.984;2022-10-16T09:03:40;1.15;;;0.70;;
11711;SDS011;5912;51.034;6.984;2022-10-16T09:06:16;1.27;;;0.60;;
11711;SDS011;5912;51.034;6.984;2022-10-16T09:22:28;1.02;;;0.40;;
11711;SDS011;5912;51.034;6.984;2022-10-16T09:24:59;0.80;;;0.60;;
11711;SDS011;5912;51.034;6.984;2022-10-16T09:27:30;1.45;;;0.50;;
11711;SDS011;5912;51.034;6.984;2022-10-16T09:29:55;0.52;;;0.22;;
11711;SDS011;5912;51.034;6.984;2022-10-16T09:32:21;0.93;;;0.50;;
11711;SDS011;5912;51.034;6.984;2022-10-16T09:34:52;1.13;;;0.50;;
11711;SDS011;5912;51.034;6.984;2022-10-16T09:37:21;0.82;;;0.40;;
11711;SDS011;5912;51.034;6.984;2022-10-16T09:39:52;2.05;;;0.52;;
11711;SDS011;5912;51.034;6.984;2022-10-16T09:42:31;0.80;;;0.50;;
11711;SDS011;5912;51.034;6.984;2022-10-16T09:44:59;1.60;;;0.30;;
11711;SDS011;5912;51.034;6.984;2022-10-16T09:47:25;0.50;;;0.40;;
11711;SDS011;5912;51.034;6.984;2022-10-16T09:49:56;1.65;;;0.47;;
11711;SDS011;5912;51.034;6.984;2022-10-16T09:52:26;0.50;;;0.40;;
11711;SDS011;5912;51.034;6.984;2022-10-16T09:54:53;1.08;;;0.60;;
11711;SDS011;5912;51.034;6.984;2022-10-16T09:57:20;4.72;;;1.40;;
11711;SDS011;5912;51.034;6.984;2022-10-16T09:59:50;0.73;;;0.28;;
11711;SDS011;5912;51.034;6.984;2022-10-16T10:02:18;1.02;;;0.40;;
11711;SDS011;5912;51.034;6.984;2022-10-16T10:04:49;1.10;;;0.32;;
11711;SDS011;5912;51.034;6.984;2022-10-16T10:07:21;1.38;;;0.40;;
11711;SDS011;5912;51.034;6.984;2022-10-16T10:09:51;0.35;;;0.35;;
11711;SDS011;5912;51.034;6.984;2022-10-16T10:12:24;0.95;;;0.30;;
11711;SDS011;5912;51.034;6.984;2022-10-16T10:14:52;1.42;;;0.50;;
11711;SDS011;5912;51.034;6.984;2022-10-16T10:17:21;1.38;;;0.30;;
11711;SDS011;5912;51.034;6.984;2022-10-16T10:19:50;0.93;;;0.30;;
11711;SDS011;5912;51.034;6.984;2022-10-16T10:33:15;0.73;;;0.30;;
11711;SDS011;5912;51.034;6.984;2022-10-16T10:41:13;0.90;;;0.38;;
11711;SDS011;5912;51.034;6.984;2022-10-16T10:49:03;0.20;;;0.20;;
11711;SDS011;5912;51.034;6.984;2022-10-16T10:54:22;1.48;;;0.52;;
11711;SDS011;5912;51.034;6.984;2022-10-16T10:59:46;0.95;;;0.40;;
11711;SDS011;5912;51.034;6.984;2022-10-16T11:07:47;0.70;;;0.57;;
11711;SDS011;5912;51.034;6.984;2022-10-16T11:10:21;1.00;;;0.85;;
11711;SDS011;5912;51.034;6.984;2022-10-16T11:12:52;0.57;;;0.35;;
11711;SDS011;5912;51.034;6.984;2022-10-16T11:15:29;0.57;;;0.38;;
11711;SDS011;5912;51.034;6.984;2022-10-16T11:20:49;1.08;;;0.32;;
11711;SDS011;5912;51.034;6.984;2022-10-16T11:23:21;0.40;;;0.30;;
11711;SDS011;5912;51.034;6.984;2022-10-16T11:25:51;0.30;;;0.30;;
11711;SDS011;5912;51.034;6.984;2022-10-16T11:28:35;1.27;;;0.52;;
11711;SDS011;5912;51.034;6.984;2022-10-16T11:33:41;0.80;;;0.30;;
11711;SDS011;5912;51.034;6.984;2022-10-16T11:36:14;0.55;;;0.25;;
11711;SDS011;5912;51.034;6.984;2022-10-16T11:38:43;0.55;;;0.30;;
11711;SDS011;5912;51.034;6.984;2022-10-16T11:41:15;2.22;;;0.55;;
11711;SDS011;5912;51.034;6.984;2022-10-16T11:43:46;1.05;;;0.70;;
11711;SDS011;5912;51.034;6.984;2022-10-16T11:46:20;3.20;;;1.13;;
11711;SDS011;5912;51.034;6.984;2022-10-16T11:48:57;0.80;;;0.63;;
11711;SDS011;5912;51.034;6.984;2022-10-16T11:54:39;1.42;;;0.40;;
11711;SDS011;5912;51.034;6.984;2022-10-16T11:57:29;0.68;;;0.28;;
11711;SDS011;5912;51.034;6.984;2022-10-16T12:00:01;0.80;;;0.43;;
11711;SDS011;5912;51.034;6.984;2022-10-16T12:05:34;0.13;;;0.13;;
11711;SDS011;5912;51.034;6.984;2022-10-16T12:08:22;0.68;;;0.35;;
11711;SDS011;5912;51.034;6.984;2022-10-16T12:10:48;0.80;;;0.38;;
11711;SDS011;5912;51.034;6.984;2022-10-16T12:13:32;0.70;;;0.38;;
11711;SDS011;5912;51.034;6.984;2022-10-16T12:18:30;0.80;;;0.22;;
11711;SDS011;5912;51.034;6.984;2022-10-16T12:20:56;0.43;;;0.25;;
11711;SDS011;5912;51.034;6.984;2022-10-16T12:23:30;2.20;;;0.20;;
11711;SDS011;5912;51.034;6.984;2022-10-16T12:25:58;0.40;;;0.35;;
11711;SDS011;5912;51.034;6.984;2022-10-16T12:28:28;0.30;;;0.30;;
11711;SDS011;5912;51.034;6.984;2022-10-16T12:30:56;0.32;;;0.20;;
11711;SDS011;5912;51.034;6.984;2022-10-16T12:33:31;1.63;;;0.35;;
11711;SDS011;5912;51.034;6.984;2022-10-16T12:35:59;1.08;;;0.30;;
11711;SDS011;5912;51.034;6.984;2022-10-16T12:38:33;0.63;;;0.28;;
11711;SDS011;5912;51.034;6.984;2022-10-16T12:41:07;2.10;;;0.60;;
11711;SDS011;5912;51.034;6.984;2022-10-16T12:43:38;0.38;;;0.30;;
11711;SDS011;5912;51.034;6.984;2022-10-16T12:48:45;0.60;;;0.35;;
11711;SDS011;5912;51.034;6.984;2022-10-16T12:53:37;0.82;;;0.47;;
11711;SDS011;5912;51.034;6.984;2022-10-16T12:56:04;0.50;;;0.40;;
11711;SDS011;5912;51.034;6.984;2022-10-16T13:06:48;1.90;;;0.38;;
11711;SDS011;5912;51.034;6.984;2022-10-16T13:12:29;1.35;;;0.30;;
11711;SDS011;5912;51.034;6.984;2022-10-16T13:20:53;1.67;;;0.35;;
11711;SDS011;5912;51.034;6.984;2022-10-16T13:27:07;1.17;;;0.40;;
11711;SDS011;5912;51.034;6.984;2022-10-16T13:29:43;0.90;;;0.30;;
11711;SDS011;5912;51.034;6.984;2022-10-16T13:32:09;2.03;;;0.40;;
11711;SDS011;5912;51.034;6.984;2022-10-16T13:34:47;1.20;;;0.40;;
11711;SDS011;5912;51.034;6.984;2022-10-16T13:37:21;0.73;;;0.40;;
11711;SDS011;5912;51.034;6.984;2022-10-16T13:39:48;1.35;;;0.50;;
11711;SDS011;5912;51.034;6.984;2022-10-16T13:42:26;1.40;;;0.50;;
11711;SDS011;5912;51.034;6.984;2022-10-16T13:44:53;2.15;;;0.60;;
11711;SDS011;5912;51.034;6.984;2022-10-16T13:47:21;1.30;;;0.47;;
11711;SDS011;5912;51.034;6.984;2022-10-16T13:50:01;0.70;;;0.40;;
11711;SDS011;5912;51.034;6.984;2022-10-16T13:52:34;2.17;;;0.40;;
11711;SDS011;5912;51.034;6.984;2022-10-16T13:54:59;1.30;;;0.55;;
11711;SDS011;5912;51.034;6.984;2022-10-16T13:57:25;1.23;;;0.50;;
11711;SDS011;5912;51.034;6.984;2022-10-16T13:59:50;0.95;;;0.50;;
11711;SDS011;5912;51.034;6.984;2022-10-16T14:05:03;1.48;;;0.52;;
11711;SDS011;5912;51.034;6.984;2022-10-16T14:07:34;0.70;;;0.40;;
11711;SDS011;5912;51.034;6.984;2022-10-16T14:10:04;0.70;;;0.30;;
11711;SDS011;5912;51.034;6.984;2022-10-16T14:12:31;1.58;;;0.80;;
11711;SDS011;5912;51.034;6.984;2022-10-16T14:14:57;1.40;;;0.60;;
11711;SDS011;5912;51.034;6.984;2022-10-16T14:17:28;0.30;;;0.25;;
11711;SDS011;5912;51.034;6.984;2022-10-16T14:19:57;0.70;;;0.65;;
11711;SDS011;5912;51.034;6.984;2022-10-16T14:25:46;0.73;;;0.40;;
11711;SDS011;5912;51.034;6.984;2022-10-16T14:28:17;0.95;;;0.60;;
11711;SDS011;5912;51.034;6.984;2022-10-16T14:30:56;0.60;;;0.52;;
11711;SDS011;5912;51.034;6.984;2022-10-16T14:38:36;0.88;;;0.50;;
11711;SDS011;5912;51.034;6.984;2022-10-16T14:41:14;0.82;;;0.40;;
11711;SDS011;5912;51.034;6.984;2022-10-16T14:43:41;0.32;;;0.30;;
11711;SDS011;5912;51.034;6.984;2022-10-16T14:46:18;1.33;;;0.47;;
11711;SDS011;5912;51.034;6.984;2022-10-16T14:48:46;2.45;;;0.60;;
11711;SDS011;5912;51.034;6.984;2022-10-16T14:51:18;1.00;;;0.52;;
11711;SDS011;5912;51.034;6.984;2022-10-16T14:53:44;1.48;;;0.50;;
11711;SDS011;5912;51.034;6.984;2022-10-16T14:56:19;0.50;;;0.40;;
11711;SDS011;5912;51.034;6.984;2022-10-16T14:58:48;0.60;;;0.40;;
11711;SDS011;5912;51.034;6.984;2022-10-16T15:01:15;0.40;;;0.38;;
11711;SDS011;5912;51.034;6.984;2022-10-16T15:03:40;2.55;;;0.50;;
11711;SDS011;5912;51.034;6.984;2022-10-16T15:06:10;0.80;;;0.60;;
11711;SDS011;5912;51.034;6.984;2022-10-16T15:08:36;3.28;;;0.52;;
11711;SDS011;5912;51.034;6.984;2022-10-16T15:11:02;0.20;;;0.20;;
11711;SDS011;5912;51.034;6.984;2022-10-16T15:13:28;0.80;;;0.43;;
11711;SDS011;5912;51.034;6.984;2022-10-16T15:15:53;0.50;;;0.40;;
11711;SDS011;5912;51.034;6.984;2022-10-16T15:43:18;0.40;;;0.40;;
11711;SDS011;5912;51.034;6.984;2022-10-16T15:45:44;1.02;;;0.68;;
11711;SDS011;5912;51.034;6.984;2022-10-16T15:48:22;0.50;;;0.47;;
11711;SDS011;5912;51.034;6.984;2022-10-16T15:50:48;0.90;;;0.68;;
11711;SDS011;5912;51.034;6.984;2022-10-16T15:53:13;0.63;;;0.60;;
11711;SDS011;5912;51.034;6.984;2022-10-16T15:55:38;0.60;;;0.50;;
11711;SDS011;5912;51.034;6.984;2022-10-16T15:58:04;1.48;;;0.68;;
11711;SDS011;5912;51.034;6.984;2022-10-16T16:00:30;1.63;;;0.65;;
11711;SDS011;5912;51.034;6.984;2022-10-16T16:02:56;1.45;;;0.70;;
11711;SDS011;5912;51.034;6.984;2022-10-16T16:05:21;1.50;;;1.00;;
11711;SDS011;5912;51.034;6.984;2022-10-16T16:07:49;1.88;;;0.85;;
11711;SDS011;5912;51.034;6.984;2022-10-16T16:10:15;1.35;;;0.80;;
11711;SDS011;5912;51.034;6.984;2022-10-16T16:12:40;1.05;;;0.80;;
11711;SDS011;5912;51.034;6.984;2022-10-16T16:15:06;1.35;;;1.00;;
11711;SDS011;5912;51.034;6.984;2022-10-16T16:17:33;1.10;;;0.80;;
11711;SDS011;5912;51.034;6.984;2022-10-16T16:19:59;2.10;;;1.20;;
11711;SDS011;5912;51.034;6.984;2022-10-16T16:22:24;1.77;;;0.80;;
11711;SDS011;5912;51.034;6.984;2022-10-16T16:24:50;1.00;;;0.80;;
11711;SDS011;5912;51.034;6.984;2022-10-16T16:27:15;2.08;;;0.70;;
11711;SDS011;5912;51.034;6.984;2022-10-16T16:29:41;0.90;;;0.80;;
11711;SDS011;5912;51.034;6.984;2022-10-16T16:32:06;0.73;;;0.55;;
11711;SDS011;5912;51.034;6.984;2022-10-16T16:34:32;2.75;;;0.70;;
11711;SDS011;5912;51.034;6.984;2022-10-16T16:36:57;0.95;;;0.57;;
11711;SDS011;5912;51.034;6.984;2022-10-16T16:39:22;1.77;;;0.75;;
11711;SDS011;5912;51.034;6.984;2022-10-16T16:41:48;1.27;;;0.80;;
11711;SDS011;5912;51.034;6.984;2022-10-16T16:44:14;0.77;;;0.60;;
11711;SDS011;5912;51.034;6.984;2022-10-16T16:46:41;2.33;;;0.95;;
11711;SDS011;5912;51.034;6.984;2022-10-16T16:49:08;1.35;;;0.55;;
11711;SDS011;5912;51.034;6.984;2022-10-16T16:51:35;1.30;;;0.88;;
11711;SDS011;5912;51.034;6.984;2022-10-16T16:54:00;0.93;;;0.82;;
11711;SDS011;5912;51.034;6.984;2022-10-16T16:56:26;2.92;;;1.23;;
11711;SDS011;5912;51.034;6.984;2022-10-16T16:58:52;2.15;;;1.05;;
11711;SDS011;5912;51.034;6.984;2022-10-16T17:01:20;1.73;;;0.88;;
11711;SDS011;5912;51.034;6.984;2022-10-16T17:03:48;1.45;;;0.93;;
11711;SDS011;5912;51.034;6.984;2022-10-16T17:06:16;1.17;;;0.75;;
11711;SDS011;5912;51.034;6.984;2022-10-16T17:08:44;2.15;;;1.35;;
11711;SDS011;5912;51.034;6.984;2022-10-16T17:11:13;3.08;;;0.95;;
11711;SDS011;5912;51.034;6.984;2022-10-16T17:13:40;1.35;;;0.90;;
11711;SDS011;5912;51.034;6.984;2022-10-16T17:16:06;1.20;;;0.90;;
11711;SDS011;5912;51.034;6.984;2022-10-16T17:18:31;1.23;;;1.00;;
11711;SDS011;5912;51.034;6.984;2022-10-16T17:20:58;1.42;;;0.93;;
11711;SDS011;5912;51.034;6.984;2022-10-16T17:23:24;2.17;;;1.20;;
11711;SDS011;5912;51.034;6.984;2022-10-16T17:25:50;3.00;;;1.13;;
11711;SDS011;5912;51.034;6.984;2022-10-16T17:28:15;1.75;;;1.13;;